Time;durP1;ratioP1;P1;durP2;ratioP2;P2;SDS_P1;SDS_P2;PMS_P1;PMS_P2;Temp;Humidity;BMP_temperature;BMP_pressure;BME280_temperature;BME280_humidity;BME280_pressure;Samples;Min_cycle;Max_cycle;Signal;HPM_P1;HPM_P2
2021/07/26 00:00:58;;;;;;;8.02;6.85;;;18.30;72.30;;;;;;5014025;28;20396;-77
2021/07/26 00:03:24;;;;;;;9.02;6.10;;;18.30;72.60;;;;;;5014546;28;20812;-76
2021/07/26 00:05:57;;;;;;;11.25;6.70;;;18.30;72.30;;;;;;5014952;28;20451;-76
2021/07/26 00:08:23;;;;;;;9.32;7.30;;;18.30;71.60;;;;;;5015496;28;20479;-75
2021/07/26 00:10:58;;;;;;;9.45;6.22;;;18.20;72.00;;;;;;5015015;28;20460;-75
2021/07/26 00:13:23;;;;;;;7.82;7.03;;;18.20;71.60;;;;;;5015457;28;20381;-75
2021/07/26 00:15:49;;;;;;;10.63;6.90;;;18.20;71.80;;;;;;5015430;28;20399;-76
2021/07/26 00:18:14;;;;;;;12.80;6.83;;;18.20;71.70;;;;;;5019055;28;20443;-77
2021/07/26 00:20:40;;;;;;;9.63;6.80;;;18.30;70.70;;;;;;5017375;28;20397;-77
2021/07/26 00:23:06;;;;;;;9.57;6.67;;;18.30;69.90;;;;;;5017831;28;20393;-77
2021/07/26 00:25:31;;;;;;;10.63;6.80;;;18.30;69.80;;;;;;5017120;28;20389;-76
2021/07/26 00:27:57;;;;;;;12.30;7.55;;;18.30;69.80;;;;;;5015984;28;20395;-77
2021/07/26 00:30:22;;;;;;;9.98;6.90;;;18.20;70.30;;;;;;5017683;28;20395;-76
2021/07/26 00:32:48;;;;;;;11.93;7.10;;;18.20;70.60;;;;;;5017825;28;20388;-76
2021/07/26 00:35:13;;;;;;;10.60;7.33;;;18.20;70.50;;;;;;5017563;28;20841;-77
2021/07/26 00:37:39;;;;;;;8.18;6.60;;;18.20;70.10;;;;;;5015465;28;20393;-75
2021/07/26 00:40:09;;;;;;;11.13;6.90;;;18.10;70.50;;;;;;5011216;28;20408;-76
2021/07/26 00:42:36;;;;;;;9.48;7.00;;;18.10;70.80;;;;;;5011526;28;20387;-76
2021/07/26 00:45:02;;;;;;;10.18;6.88;;;18.10;71.00;;;;;;5011073;28;20936;-76
2021/07/26 00:47:27;;;;;;;10.13;7.20;;;18.10;70.50;;;;;;5010650;28;20460;-76
2021/07/26 00:49:53;;;;;;;10.50;7.10;;;18.10;70.40;;;;;;5010852;28;20471;-76
2021/07/26 00:52:19;;;;;;;11.40;6.97;;;18.10;70.50;;;;;;5011656;28;20404;-76
2021/07/26 00:54:46;;;;;;;9.57;6.80;;;18.10;69.80;;;;;;5015178;28;20734;-76
2021/07/26 00:57:12;;;;;;;8.15;6.75;;;18.10;68.60;;;;;;5013088;28;20396;-76
2021/07/26 00:59:39;;;;;;;10.65;7.00;;;18.10;69.50;;;;;;5011349;28;20459;-77
2021/07/26 01:02:05;;;;;;;9.10;6.90;;;18.00;69.90;;;;;;5011665;28;20392;-77
2021/07/26 01:04:30;;;;;;;9.20;6.47;;;18.00;70.70;;;;;;5011609;28;20385;-76
2021/07/26 01:06:57;;;;;;;10.30;7.10;;;18.00;70.70;;;;;;5011106;28;20380;-76
2021/07/26 01:09:23;;;;;;;10.48;7.55;;;18.00;70.90;;;;;;5011844;28;20421;-76
2021/07/26 01:11:49;;;;;;;8.20;7.05;;;18.00;70.70;;;;;;5010396;28;20392;-76
2021/07/26 01:14:15;;;;;;;11.90;7.20;;;17.90;71.30;;;;;;5013188;28;20519;-76
2021/07/26 01:16:45;;;;;;;11.93;7.20;;;17.90;71.60;;;;;;5010790;28;20396;-77
2021/07/26 01:19:11;;;;;;;9.38;7.40;;;17.90;71.90;;;;;;5010975;28;20416;-77
2021/07/26 01:21:37;;;;;;;10.15;6.53;;;17.90;72.40;;;;;;5011469;28;20964;-77
2021/07/26 01:24:03;;;;;;;9.52;6.78;;;17.90;72.00;;;;;;5013665;28;20385;-77
2021/07/26 01:26:30;;;;;;;7.93;6.60;;;17.90;71.10;;;;;;5014946;28;20400;-77
2021/07/26 01:29:01;;;;;;;9.67;6.80;;;17.90;71.10;;;;;;5014548;28;20858;-77
2021/07/26 01:31:27;;;;;;;10.00;7.10;;;17.90;71.60;;;;;;5018231;28;20393;-77
2021/07/26 01:33:53;;;;;;;9.25;6.57;;;17.80;72.10;;;;;;5015899;28;20407;-77
2021/07/26 01:36:20;;;;;;;9.63;7.38;;;17.80;71.80;;;;;;5016911;28;20401;-77
2021/07/26 01:38:51;;;;;;;8.70;7.40;;;17.80;71.60;;;;;;5016342;28;20852;-76
2021/07/26 01:41:23;;;;;;;10.75;7.60;;;17.70;72.40;;;;;;5013733;28;20380;-77
2021/07/26 01:44:03;;;;;;;12.43;6.97;;;17.80;72.00;;;;;;5014929;28;20381;-77
2021/07/26 01:46:40;;;;;;;9.18;6.63;;;17.70;72.20;;;;;;5013762;28;20745;-77
2021/07/26 01:49:43;;;;;;;9.35;7.10;;;17.70;72.30;;;;;;5013367;28;20757;-77
2021/07/26 01:52:09;;;;;;;8.50;6.43;;;17.70;72.70;;;;;;5013061;28;20397;-76
2021/07/26 01:54:35;;;;;;;9.75;6.75;;;17.70;73.00;;;;;;5013230;28;20436;-76
2021/07/26 01:57:01;;;;;;;8.63;6.70;;;17.60;72.90;;;;;;5013209;28;20462;-76
2021/07/26 01:59:27;;;;;;;11.68;6.97;;;17.70;73.30;;;;;;5028706;28;20404;-77
2021/07/26 02:01:52;;;;;;;9.10;6.80;;;17.60;73.60;;;;;;5013494;28;20456;-77
2021/07/26 02:04:18;;;;;;;9.60;7.00;;;17.60;74.00;;;;;;5013023;28;20854;-77
2021/07/26 02:06:44;;;;;;;10.23;6.80;;;17.60;73.20;;;;;;5013607;28;20393;-77
2021/07/26 02:09:09;;;;;;;10.25;7.18;;;17.60;73.50;;;;;;5012919;28;20396;-76
2021/07/26 02:11:35;;;;;;;9.00;6.77;;;17.60;74.00;;;;;;5013314;28;20404;-77
2021/07/26 02:14:08;;;;;;;12.40;7.17;;;17.60;74.10;;;;;;5013708;28;20904;-76
2021/07/26 02:16:34;;;;;;;9.88;6.45;;;17.60;73.60;;;;;;5014431;28;20407;-76
2021/07/26 02:19:00;;;;;;;9.30;6.40;;;17.60;72.40;;;;;;5014013;28;20806;-76
2021/07/26 02:21:25;;;;;;;8.43;7.00;;;17.70;72.00;;;;;;5013313;28;20400;-77
2021/07/26 02:23:51;;;;;;;9.40;6.00;;;17.60;72.10;;;;;;5012631;28;20817;-76
2021/07/26 02:26:16;;;;;;;7.80;6.47;;;17.70;71.80;;;;;;5014523;28;20381;-77
2021/07/26 02:28:42;;;;;;;11.63;6.67;;;17.60;71.60;;;;;;5013112;28;20385;-76
2021/07/26 02:31:07;;;;;;;8.40;6.60;;;17.60;71.90;;;;;;5012947;28;20392;-75
2021/07/26 02:33:33;;;;;;;11.50;6.72;;;17.60;72.10;;;;;;5012947;28;20906;-76
2021/07/26 02:35:58;;;;;;;11.90;7.10;;;17.60;71.70;;;;;;5012322;28;20806;-76
2021/07/26 02:38:24;;;;;;;9.10;6.57;;;17.60;71.70;;;;;;5012197;28;20381;-76
2021/07/26 02:40:50;;;;;;;7.15;6.13;;;17.60;71.40;;;;;;5013219;28;20385;-76
2021/07/26 02:43:15;;;;;;;9.73;6.60;;;17.60;71.30;;;;;;5013405;28;20389;-77
2021/07/26 02:45:41;;;;;;;9.30;6.47;;;17.60;70.90;;;;;;5013147;28;20604;-76
2021/07/26 02:48:08;;;;;;;7.10;5.90;;;17.60;70.10;;;;;;5011993;28;20400;-76
2021/07/26 02:50:33;;;;;;;10.60;6.80;;;17.70;69.80;;;;;;5014196;28;20806;-77
2021/07/26 02:53:00;;;;;;;12.05;5.78;;;17.70;69.00;;;;;;5012529;28;20428;-76
2021/07/26 02:55:27;;;;;;;9.07;6.20;;;17.70;68.90;;;;;;5016542;28;20735;-76
2021/07/26 02:57:53;;;;;;;9.68;6.40;;;17.70;68.70;;;;;;5011848;28;20416;-75
2021/07/26 03:00:19;;;;;;;7.83;6.77;;;17.70;69.40;;;;;;5012343;28;20495;-77
2021/07/26 03:02:45;;;;;;;9.60;5.93;;;17.70;69.30;;;;;;5012005;28;20942;-76
2021/07/26 03:05:11;;;;;;;9.17;6.93;;;17.70;69.10;;;;;;5020684;23;20487;-72
2021/07/26 03:07:36;;;;;;;8.48;6.20;;;17.70;69.40;;;;;;4991706;28;20561;-72
2021/07/26 03:10:02;;;;;;;8.80;6.20;;;17.70;68.70;;;;;;4991750;28;21010;-72
2021/07/26 03:12:27;;;;;;;8.48;6.10;;;17.70;69.00;;;;;;4990981;28;20397;-72
2021/07/26 03:14:53;;;;;;;9.35;6.03;;;17.80;68.70;;;;;;4990964;28;20910;-73
2021/07/26 03:17:18;;;;;;;9.30;6.53;;;17.70;69.90;;;;;;4991612;28;20374;-72
2021/07/26 03:19:44;;;;;;;11.38;6.10;;;17.80;68.50;;;;;;4991339;28;20406;-72
2021/07/26 03:22:57;;;;;;;7.43;6.18;;;17.80;68.50;;;;;;4991581;28;20421;-72
2021/07/26 03:25:24;;;;;;;8.32;6.00;;;17.70;68.60;;;;;;4974132;28;20394;-72
2021/07/26 03:27:49;;;;;;;8.43;7.20;;;17.70;69.00;;;;;;4992317;28;20402;-73
2021/07/26 03:30:16;;;;;;;13.18;6.78;;;17.70;69.10;;;;;;4991402;28;20810;-72
2021/07/26 03:32:43;;;;;;;9.63;6.60;;;17.70;69.00;;;;;;4991289;28;20752;-72
2021/07/26 03:35:09;;;;;;;10.43;6.53;;;17.70;69.20;;;;;;4991209;28;20386;-73
2021/07/26 03:37:35;;;;;;;7.28;5.82;;;17.70;69.50;;;;;;4991305;28;20393;-73
2021/07/26 03:40:00;;;;;;;8.60;6.53;;;17.70;69.60;;;;;;4991405;28;20414;-72
2021/07/26 03:42:26;;;;;;;8.67;6.20;;;17.70;70.00;;;;;;4991384;28;20387;-72
2021/07/26 03:44:55;;;;;;;9.23;6.57;;;17.70;70.00;;;;;;4990939;28;20545;-72
2021/07/26 03:47:22;;;;;;;10.60;6.38;;;17.80;68.80;;;;;;4991363;28;20764;-72
2021/07/26 03:49:48;;;;;;;7.80;6.00;;;17.80;68.50;;;;;;4991616;28;20767;-71
2021/07/26 03:52:13;;;;;;;8.50;6.20;;;17.80;67.90;;;;;;4991599;28;20391;-73
2021/07/26 03:54:39;;;;;;;7.60;5.83;;;17.80;67.50;;;;;;4991291;28;20621;-72
2021/07/26 03:57:05;;;;;;;9.40;6.28;;;17.80;67.80;;;;;;4990942;28;20401;-72
2021/07/26 03:59:30;;;;;;;9.10;6.20;;;17.70;68.10;;;;;;4979239;28;20418;-72
2021/07/26 04:01:56;;;;;;;10.20;6.60;;;17.70;68.10;;;;;;4990909;28;20484;-73
2021/07/26 04:04:22;;;;;;;10.43;7.10;;;17.70;68.80;;;;;;4991025;28;20386;-72
2021/07/26 04:06:52;;;;;;;9.32;6.63;;;17.70;68.80;;;;;;4990855;28;20472;-70
2021/07/26 04:09:19;;;;;;;12.07;6.47;;;17.80;68.00;;;;;;4990627;28;20398;-74
2021/07/26 04:11:47;;;;;;;9.18;6.40;;;17.80;67.80;;;;;;4989765;28;20386;-71
2021/07/26 04:14:14;;;;;;;11.38;6.30;;;17.80;67.30;;;;;;4991995;28;20465;-71
2021/07/26 04:16:40;;;;;;;11.20;6.47;;;18.00;66.70;;;;;;4989425;28;20926;-71
2021/07/26 04:19:05;;;;;;;9.13;6.80;;;18.00;65.80;;;;;;4970998;28;20411;-71
2021/07/26 04:21:32;;;;;;;7.47;5.88;;;18.10;65.20;;;;;;4971442;28;20388;-71
2021/07/26 04:23:59;;;;;;;11.80;6.90;;;18.10;65.10;;;;;;4971230;28;20393;-71
2021/07/26 04:26:25;;;;;;;6.55;5.50;;;18.20;64.50;;;;;;4971152;28;20384;-71
2021/07/26 04:28:51;;;;;;;11.00;6.35;;;18.30;63.30;;;;;;4970813;28;20431;-71
2021/07/26 04:31:16;;;;;;;8.48;6.28;;;18.40;61.30;;;;;;4986948;28;20455;-71
2021/07/26 04:33:42;;;;;;;10.20;6.20;;;18.50;59.90;;;;;;5010585;28;20381;-70
2021/07/26 04:36:07;;;;;;;8.37;6.10;;;18.60;59.20;;;;;;4990430;28;20413;-70
2021/07/26 04:38:33;;;;;;;10.20;5.80;;;18.70;57.60;;;;;;4988408;28;20476;-70
2021/07/26 04:40:59;;;;;;;9.48;5.68;;;18.70;57.10;;;;;;4988464;28;20398;-70
2021/07/26 04:43:25;;;;;;;7.57;6.07;;;18.80;56.60;;;;;;4990114;28;20383;-70
2021/07/26 04:45:50;;;;;;;9.52;5.30;;;18.90;55.30;;;;;;4990697;28;20399;-70
2021/07/26 04:48:16;;;;;;;7.50;5.70;;;18.90;55.30;;;;;;4990277;28;20717;-70
2021/07/26 04:50:41;;;;;;;7.57;5.23;;;19.00;54.40;;;;;;4991531;28;20402;-70
2021/07/26 04:53:07;;;;;;;8.10;6.07;;;19.20;53.50;;;;;;4990841;28;20750;-70
2021/07/26 04:55:33;;;;;;;9.70;6.20;;;19.20;53.80;;;;;;4997302;28;20405;-70
2021/07/26 04:57:58;;;;;;;5.93;5.20;;;19.20;52.10;;;;;;5004946;28;20413;-70
2021/07/26 05:00:26;;;;;;;9.52;5.45;;;19.50;50.10;;;;;;4990466;28;20410;-70
2021/07/26 05:02:53;;;;;;;7.55;5.45;;;19.60;49.40;;;;;;4993074;28;20390;-70
2021/07/26 05:05:18;;;;;;;9.57;5.97;;;19.60;49.50;;;;;;4991978;28;20422;-70
2021/07/26 05:07:44;;;;;;;8.80;5.50;;;19.60;49.30;;;;;;4993626;28;20436;-70
2021/07/26 05:10:12;;;;;;;8.68;6.00;;;19.70;49.40;;;;;;4993995;28;20387;-70
2021/07/26 05:12:38;;;;;;;8.17;5.50;;;19.70;48.90;;;;;;4995267;28;20405;-70
2021/07/26 05:15:05;;;;;;;8.40;5.20;;;19.80;48.20;;;;;;4993942;28;20418;-70
2021/07/26 05:17:31;;;;;;;9.77;5.60;;;19.90;48.00;;;;;;4993624;28;20386;-70
2021/07/26 05:19:56;;;;;;;7.70;5.13;;;20.00;47.40;;;;;;4993797;28;20541;-70
2021/07/26 05:22:22;;;;;;;8.45;5.30;;;20.10;47.10;;;;;;4992557;28;20402;-71
2021/07/26 05:24:48;;;;;;;9.40;5.70;;;20.20;46.40;;;;;;4992561;28;20396;-70
2021/07/26 05:27:15;;;;;;;6.53;5.80;;;20.30;45.30;;;;;;4994103;28;20502;-70
2021/07/26 05:29:40;;;;;;;7.57;5.28;;;20.30;45.40;;;;;;4993906;28;20494;-69
2021/07/26 05:32:07;;;;;;;9.35;6.30;;;20.40;45.20;;;;;;5006380;28;20481;-70
2021/07/26 05:34:32;;;;;;;7.75;5.32;;;20.50;45.20;;;;;;4996051;28;20392;-70
2021/07/26 05:36:58;;;;;;;11.75;5.78;;;20.60;44.50;;;;;;4999597;28;20468;-70
2021/07/26 05:39:24;;;;;;;11.20;6.10;;;20.60;44.30;;;;;;4997819;28;20419;-70
2021/07/26 05:41:56;;;;;;;10.63;5.97;;;20.70;44.10;;;;;;4991895;28;20557;-69
2021/07/26 05:44:22;;;;;;;9.23;5.75;;;20.70;43.50;;;;;;4993319;28;20443;-69
2021/07/26 05:46:47;;;;;;;8.75;5.93;;;20.90;42.40;;;;;;4992542;28;20786;-70
2021/07/26 05:49:13;;;;;;;7.50;5.30;;;20.90;42.10;;;;;;5006157;28;20971;-70
2021/07/26 05:51:38;;;;;;;9.43;6.35;;;21.00;41.80;;;;;;4994532;28;20509;-70
2021/07/26 05:54:04;;;;;;;10.27;6.50;;;21.00;41.70;;;;;;4992755;28;20407;-70
2021/07/26 05:56:35;;;;;;;8.02;5.90;;;21.10;41.20;;;;;;4992868;28;20398;-70
2021/07/26 05:59:02;;;;;;;8.82;6.25;;;21.20;40.80;;;;;;4986354;28;20414;-70
2021/07/26 06:01:46;;;;;;;9.40;5.90;;;21.30;40.30;;;;;;4991065;28;20493;-71
2021/07/26 06:04:14;;;;;;;9.10;6.30;;;21.40;39.80;;;;;;4992491;28;20879;-70
2021/07/26 06:06:42;;;;;;;27.73;8.43;;;21.50;39.40;;;;;;4991018;28;20415;-70
2021/07/26 06:09:07;;;;;;;10.95;6.03;;;21.60;38.20;;;;;;4991249;28;20441;-70
2021/07/26 06:11:33;;;;;;;20.63;7.00;;;21.60;38.50;;;;;;4991597;28;20821;-70
2021/07/26 06:13:58;;;;;;;8.60;5.80;;;21.80;38.10;;;;;;4992560;28;20999;-70
2021/07/26 06:16:24;;;;;;;8.30;5.70;;;21.80;37.80;;;;;;4992341;28;20417;-71
2021/07/26 06:18:49;;;;;;;10.23;5.97;;;21.90;37.50;;;;;;5000537;28;20446;-70
2021/07/26 06:21:15;;;;;;;9.70;5.67;;;22.10;36.80;;;;;;5010730;28;20448;-70
2021/07/26 06:23:40;;;;;;;13.57;6.82;;;22.20;36.50;;;;;;5012269;28;20463;-70
2021/07/26 06:26:07;;;;;;;8.23;4.90;;;22.50;35.60;;;;;;5006240;28;20464;-70
2021/07/26 06:28:33;;;;;;;9.65;5.35;;;22.70;33.50;;;;;;5001588;28;20876;-70
2021/07/26 06:31:00;;;;;;;8.98;4.60;;;22.70;32.70;;;;;;4992473;28;20395;-69
2021/07/26 06:33:26;;;;;;;5.18;4.68;;;22.70;32.20;;;;;;4993466;28;20534;-70
2021/07/26 06:35:51;;;;;;;7.55;4.90;;;22.60;32.80;;;;;;4998356;28;20406;-72
2021/07/26 06:38:17;;;;;;;9.10;4.80;;;22.50;32.90;;;;;;4992435;28;20394;-72
2021/07/26 06:40:44;;;;;;;5.72;3.90;;;22.50;33.00;;;;;;4992169;28;20418;-73
2021/07/26 06:43:09;;;;;;;8.98;4.47;;;22.40;33.10;;;;;;4993792;28;20397;-73
2021/07/26 06:45:35;;;;;;;6.70;4.57;;;22.50;32.50;;;;;;4991340;28;20401;-74
2021/07/26 06:48:00;;;;;;;7.65;4.80;;;22.40;32.40;;;;;;4993830;28;20448;-73
2021/07/26 06:50:26;;;;;;;11.63;4.83;;;22.40;32.70;;;;;;5001032;28;20878;-74
2021/07/26 06:52:52;;;;;;;9.83;4.70;;;22.30;32.90;;;;;;4996367;28;20398;-71
2021/07/26 06:55:18;;;;;;;7.43;5.23;;;22.40;32.80;;;;;;4991018;28;20413;-73
2021/07/26 06:57:43;;;;;;;6.57;4.45;;;22.40;33.20;;;;;;4990204;28;20402;-72
2021/07/26 07:00:10;;;;;;;6.53;4.83;;;22.30;33.50;;;;;;4989176;28;20419;-71
2021/07/26 07:02:36;;;;;;;7.40;4.80;;;22.30;33.10;;;;;;4991070;28;20391;-71
2021/07/26 07:05:01;;;;;;;11.77;4.95;;;22.30;33.40;;;;;;4979385;28;20408;-71
2021/07/26 07:07:27;;;;;;;7.73;5.40;;;22.50;33.60;;;;;;4990451;28;20398;-71
2021/07/26 07:09:53;;;;;;;10.52;5.03;;;22.60;33.00;;;;;;4991433;28;20405;-71
2021/07/26 07:12:19;;;;;;;5.60;4.10;;;22.80;32.20;;;;;;4992420;28;20398;-71
2021/07/26 07:14:44;;;;;;;6.72;4.60;;;23.10;30.80;;;;;;4996825;28;20560;-72
2021/07/26 07:17:10;;;;;;;11.17;4.70;;;23.40;30.10;;;;;;4991724;28;20409;-71
2021/07/26 07:19:40;;;;;;;10.57;5.10;;;23.50;29.60;;;;;;4989241;28;20421;-72
2021/07/26 07:22:06;;;;;;;6.43;5.05;;;23.50;29.80;;;;;;4995100;28;20438;-73
2021/07/26 07:24:32;;;;;;;6.13;4.50;;;23.40;30.40;;;;;;4991435;28;20409;-73
2021/07/26 07:26:57;;;;;;;8.52;4.50;;;23.20;30.30;;;;;;4989932;28;20403;-72
2021/07/26 07:29:23;;;;;;;6.57;3.83;;;23.40;29.10;;;;;;4992469;28;20929;-73
2021/07/26 07:31:49;;;;;;;5.35;4.10;;;23.30;27.40;;;;;;4993728;28;20398;-72
2021/07/26 07:34:15;;;;;;;6.63;3.75;;;23.30;28.00;;;;;;5009048;28;20400;-72
2021/07/26 07:36:42;;;;;;;3.95;3.30;;;23.40;27.80;;;;;;4990644;28;20755;-72
2021/07/26 07:39:09;;;;;;;5.35;4.00;;;23.20;27.70;;;;;;4990747;28;20522;-72
2021/07/26 07:41:34;;;;;;;6.55;3.92;;;23.10;28.00;;;;;;4997274;28;20398;-71
2021/07/26 07:44:01;;;;;;;4.50;3.70;;;23.00;27.90;;;;;;4989732;28;20906;-72
2021/07/26 07:46:26;;;;;;;5.97;4.13;;;22.90;28.50;;;;;;4990564;28;20391;-72
2021/07/26 07:48:52;;;;;;;4.72;4.10;;;22.80;29.00;;;;;;4990788;28;20394;-72
2021/07/26 07:51:18;;;;;;;7.05;4.07;;;22.80;29.60;;;;;;4989887;28;20398;-72
2021/07/26 07:53:45;;;;;;;7.35;4.18;;;22.90;29.20;;;;;;5007326;28;20439;-72
2021/07/26 07:56:10;;;;;;;4.10;3.70;;;23.00;29.30;;;;;;5001093;28;20833;-73
2021/07/26 07:58:36;;;;;;;5.10;3.70;;;23.10;28.80;;;;;;4984060;28;20406;-73
2021/07/26 08:01:02;;;;;;;6.80;4.07;;;23.30;27.70;;;;;;5000865;28;20405;-73
2021/07/26 08:03:28;;;;;;;5.60;4.40;;;23.50;27.50;;;;;;4996596;28;20402;-72
2021/07/26 08:05:54;;;;;;;3.73;3.43;;;23.70;26.70;;;;;;4994665;28;20922;-73
2021/07/26 08:08:21;;;;;;;4.63;3.50;;;23.90;25.60;;;;;;4988668;28;20478;-74
2021/07/26 08:10:47;;;;;;;3.63;3.00;;;23.80;24.80;;;;;;5003617;28;20400;-73
2021/07/26 08:13:18;;;;;;;3.72;3.38;;;23.80;24.60;;;;;;5001331;28;20431;-72
2021/07/26 08:15:51;;;;;;;4.30;3.30;;;23.90;24.50;;;;;;4976408;28;20398;-70
2021/07/26 08:18:18;;;;;;;8.47;3.87;;;23.90;24.40;;;;;;4990168;28;20407;-70
2021/07/26 08:20:44;;;;;;;4.70;3.70;;;23.90;24.40;;;;;;4985162;28;20418;-70
2021/07/26 08:23:10;;;;;;;3.88;3.47;;;23.70;24.30;;;;;;4985489;28;20410;-70
2021/07/26 08:25:36;;;;;;;4.57;3.78;;;23.50;24.90;;;;;;4989838;28;20409;-70
2021/07/26 08:28:02;;;;;;;8.30;4.55;;;23.50;25.70;;;;;;4988092;28;20407;-71
2021/07/26 08:30:31;;;;;;;10.57;5.03;;;23.70;25.60;;;;;;4989893;28;20928;-69
2021/07/26 08:32:57;;;;;;;6.50;5.90;;;23.90;25.00;;;;;;4988757;28;20406;-70
2021/07/26 08:35:24;;;;;;;6.30;5.70;;;24.10;25.00;;;;;;4992206;28;20450;-69
2021/07/26 08:37:50;;;;;;;10.55;6.43;;;24.30;23.60;;;;;;4993765;28;20895;-70
2021/07/26 08:40:18;;;;;;;6.82;4.93;;;24.40;23.40;;;;;;4994655;28;20524;-70
2021/07/26 08:42:44;;;;;;;7.07;4.40;;;24.70;22.90;;;;;;4994078;28;20650;-70
2021/07/26 08:45:10;;;;;;;5.37;3.80;;;24.70;22.10;;;;;;4994647;28;20386;-69
2021/07/26 08:47:39;;;;;;;6.22;4.60;;;24.70;22.10;;;;;;4994195;28;20395;-70
2021/07/26 08:50:06;;;;;;;3.97;3.60;;;24.80;21.00;;;;;;4994650;28;20397;-69
2021/07/26 08:52:42;;;;;;;7.20;4.20;;;24.80;21.40;;;;;;4994001;28;20472;-70
2021/07/26 08:55:12;;;;;;;5.90;3.92;;;25.00;21.10;;;;;;4994093;28;20418;-69
2021/07/26 08:57:40;;;;;;;6.95;4.35;;;25.00;21.90;;;;;;4992938;28;20449;-71
2021/07/26 09:00:07;;;;;;;7.72;4.60;;;25.00;20.80;;;;;;4993885;28;20418;-70
2021/07/26 09:02:32;;;;;;;5.78;4.25;;;25.00;21.30;;;;;;4993497;28;20394;-70
2021/07/26 09:07:31;;;;;;;7.60;4.27;;;25.00;21.50;;;;;;5012553;28;20432;-76
2021/07/26 09:09:56;;;;;;;9.32;4.35;;;25.00;21.60;;;;;;5014151;28;20397;-75
2021/07/26 09:12:31;;;;;;;6.37;3.63;;;25.20;21.00;;;;;;5013419;28;20397;-75
2021/07/26 09:14:58;;;;;;;5.95;4.50;;;25.20;21.10;;;;;;5014173;28;20392;-75
2021/07/26 09:17:24;;;;;;;5.32;3.75;;;25.20;21.20;;;;;;5014996;28;20450;-76
2021/07/26 09:19:59;;;;;;;4.23;3.83;;;25.10;21.80;;;;;;5015744;28;20490;-75
2021/07/26 09:22:33;;;;;;;4.43;4.03;;;25.20;21.40;;;;;;5031418;28;20500;-75
2021/07/26 09:25:20;;;;;;;5.53;3.97;;;25.70;20.50;;;;;;5027057;28;20463;-77
2021/07/26 09:27:58;;;;;;;7.45;4.00;;;26.10;19.30;;;;;;5024231;28;20431;-76
2021/07/26 09:30:25;;;;;;;4.47;3.60;;;26.20;18.50;;;;;;5013896;28;20932;-76
2021/07/26 09:32:51;;;;;;;4.73;3.50;;;26.50;18.40;;;;;;5022788;28;20448;-76
2021/07/26 09:35:23;;;;;;;4.63;3.40;;;26.70;17.50;;;;;;5017594;28;20396;-76
2021/07/26 09:37:56;;;;;;;8.35;3.55;;;26.90;17.10;;;;;;5021484;28;20863;-76
2021/07/26 09:40:23;;;;;;;7.60;4.20;;;26.80;17.40;;;;;;5033588;28;20402;-76
2021/07/26 09:42:53;;;;;;;3.13;2.83;;;26.80;17.70;;;;;;5025279;28;20403;-75
2021/07/26 09:45:23;;;;;;;5.72;3.10;;;26.80;16.80;;;;;;5013212;28;20388;-74
2021/07/26 09:48:08;;;;;;;4.25;3.50;;;26.80;16.50;;;;;;5013159;28;20400;-75
2021/07/26 09:50:55;;;;;;;4.75;3.70;;;27.00;17.10;;;;;;5030689;28;20395;-74
2021/07/26 09:53:28;;;;;;;5.07;3.63;;;26.90;16.40;;;;;;5011537;28;20417;-76
2021/07/26 09:55:58;;;;;;;8.65;3.83;;;26.50;17.20;;;;;;5013285;28;20464;-75
2021/07/26 09:58:38;;;;;;;7.10;3.58;;;26.30;17.30;;;;;;5013127;28;20799;-75
2021/07/26 10:01:06;;;;;;;5.80;3.20;;;26.20;17.40;;;;;;5013044;28;20420;-75
2021/07/26 10:03:32;;;;;;;8.30;3.83;;;26.20;18.30;;;;;;4979879;28;20464;-73
2021/07/26 10:05:59;;;;;;;9.30;4.20;;;26.10;18.40;;;;;;5003776;28;20405;-74
2021/07/26 10:08:26;;;;;;;4.05;3.65;;;25.80;18.20;;;;;;5027574;28;20399;-75
2021/07/26 10:10:53;;;;;;;4.97;3.40;;;25.70;19.30;;;;;;5033057;28;20391;-74
2021/07/26 10:13:19;;;;;;;3.80;3.50;;;25.70;18.50;;;;;;5019464;28;20408;-75
2021/07/26 10:15:45;;;;;;;4.75;3.65;;;25.80;18.70;;;;;;5016934;28;20395;-74
2021/07/26 10:18:11;;;;;;;5.13;3.00;;;25.90;17.40;;;;;;5033016;28;20380;-74
2021/07/26 10:20:41;;;;;;;5.03;3.27;;;25.70;18.10;;;;;;5016379;28;20503;-75
2021/07/26 10:23:09;;;;;;;3.53;3.22;;;25.50;18.50;;;;;;5013338;28;20476;-73
2021/07/26 10:25:45;;;;;;;5.80;3.50;;;25.50;18.80;;;;;;5011861;28;20389;-74
2021/07/26 10:28:21;;;;;;;6.40;3.40;;;25.50;18.90;;;;;;5014535;28;20389;-74
2021/07/26 10:30:47;;;;;;;4.70;3.90;;;25.50;18.60;;;;;;5021541;28;20388;-76
2021/07/26 10:33:12;;;;;;;3.90;3.50;;;25.60;18.80;;;;;;5019206;28;20468;-76
2021/07/26 10:35:50;;;;;;;4.60;3.50;;;25.80;18.20;;;;;;5012998;28;20441;-76
2021/07/26 10:38:41;;;;;;;7.20;3.80;;;25.80;18.00;;;;;;4997703;28;20750;-76
2021/07/26 10:41:07;;;;;;;6.10;3.40;;;26.20;17.80;;;;;;5034383;28;20398;-76
2021/07/26 10:43:58;;;;;;;3.50;3.30;;;26.20;17.40;;;;;;5036427;28;20383;-76
2021/07/26 10:46:24;;;;;;;3.70;3.40;;;26.30;16.60;;;;;;5038435;28;20375;-76
2021/07/26 10:48:53;;;;;;;3.83;3.50;;;26.30;16.80;;;;;;5024515;28;20404;-76
2021/07/26 10:51:36;;;;;;;4.68;3.25;;;26.50;16.70;;;;;;5017089;28;20749;-76
2021/07/26 10:54:03;;;;;;;4.70;3.50;;;26.60;16.40;;;;;;5029795;28;20445;-75
2021/07/26 10:56:28;;;;;;;3.50;3.20;;;26.80;15.90;;;;;;5019955;28;20768;-76
2021/07/26 10:58:59;;;;;;;3.53;3.20;;;26.90;15.20;;;;;;5000934;28;20413;-77
2021/07/26 11:01:27;;;;;;;3.90;3.50;;;26.90;15.90;;;;;;5032523;28;20391;-76
2021/07/26 11:03:57;;;;;;;9.30;3.50;;;26.80;15.50;;;;;;5022529;28;20545;-76
2021/07/26 11:06:38;;;;;;;3.85;3.55;;;26.60;15.60;;;;;;5013539;28;20400;-76
2021/07/26 11:09:18;;;;;;;3.85;3.33;;;26.40;15.80;;;;;;5012168;28;20385;-76
2021/07/26 11:11:44;;;;;;;7.50;3.30;;;26.20;16.60;;;;;;5012206;28;20463;-76
2021/07/26 11:14:12;;;;;;;3.72;3.28;;;26.20;17.30;;;;;;5012646;28;20892;-76
2021/07/26 11:16:50;;;;;;;3.80;3.50;;;26.20;16.80;;;;;;5028385;28;20870;-75
2021/07/26 11:19:36;;;;;;;6.90;3.38;;;26.30;16.80;;;;;;5031310;28;20532;-75
2021/07/26 11:22:05;;;;;;;6.80;3.80;;;26.30;16.60;;;;;;5012964;28;20733;-77
2021/07/26 11:24:42;;;;;;;3.80;3.50;;;26.50;15.50;;;;;;5013438;28;20416;-77
2021/07/26 11:27:09;;;;;;;4.90;3.53;;;26.70;15.90;;;;;;5014436;28;20395;-76
2021/07/26 11:29:35;;;;;;;3.65;3.35;;;26.90;14.50;;;;;;5032454;28;20474;-76
2021/07/26 11:32:00;;;;;;;6.10;3.50;;;27.00;14.60;;;;;;5012933;28;20905;-76
2021/07/26 11:34:36;;;;;;;5.47;3.67;;;27.10;14.70;;;;;;5013005;28;20865;-77
2021/07/26 11:37:09;;;;;;;3.80;3.50;;;27.20;14.80;;;;;;5013704;28;20755;-76
2021/07/26 11:39:58;;;;;;;5.38;3.63;;;27.40;14.90;;;;;;5012819;28;20408;-77
2021/07/26 11:42:31;;;;;;;3.80;3.50;;;27.70;13.70;;;;;;5008050;28;20482;-76
2021/07/26 11:44:57;;;;;;;3.53;3.22;;;27.70;14.10;;;;;;5012761;28;20497;-76
2021/07/26 11:47:34;;;;;;;5.35;4.10;;;27.70;14.00;;;;;;5014311;28;20472;-73
2021/07/26 11:50:02;;;;;;;7.13;3.72;;;27.80;13.60;;;;;;5014233;28;20734;-76
2021/07/26 11:52:28;;;;;;;3.80;3.50;;;27.80;13.60;;;;;;5014071;28;20385;-76
2021/07/26 11:54:53;;;;;;;3.90;3.27;;;28.00;14.00;;;;;;5011029;28;20408;-76
2021/07/26 11:57:19;;;;;;;5.23;3.60;;;28.00;13.50;;;;;;5011927;28;20392;-76
2021/07/26 11:59:52;;;;;;;3.78;3.47;;;28.10;14.20;;;;;;5012894;28;20423;-76
2021/07/26 12:02:30;;;;;;;3.63;3.33;;;28.40;13.80;;;;;;5031279;28;20399;-76
2021/07/26 12:05:01;;;;;;;3.90;3.50;;;28.60;11.80;;;;;;5032528;28;20470;-76
2021/07/26 12:07:44;;;;;;;3.17;2.90;;;28.60;11.80;;;;;;5022077;28;20424;-76
2021/07/26 12:10:11;;;;;;;3.47;3.17;;;28.70;10.90;;;;;;5035396;28;20477;-77
2021/07/26 12:12:43;;;;;;;3.73;3.43;;;28.60;11.00;;;;;;5009185;28;20493;-76
2021/07/26 12:15:29;;;;;;;6.47;3.80;;;28.40;11.20;;;;;;4996669;28;20437;-76
2021/07/26 12:18:15;;;;;;;3.22;2.90;;;28.30;12.40;;;;;;4990818;28;20416;-76
2021/07/26 12:21:01;;;;;;;3.97;3.03;;;28.20;11.60;;;;;;5009470;28;20407;-76
2021/07/26 12:23:28;;;;;;;4.30;3.90;;;28.20;11.90;;;;;;5007613;28;20478;-75
2021/07/26 12:25:55;;;;;;;5.07;3.50;;;28.50;12.00;;;;;;5011460;28;20458;-78
2021/07/26 12:28:42;;;;;;;3.83;3.42;;;28.60;11.00;;;;;;5003949;28;20473;-78
2021/07/26 12:31:39;;;;;;;7.10;3.50;;;28.50;11.10;;;;;;5009828;28;20407;-75
2021/07/26 12:34:18;;;;;;;3.70;3.30;;;28.50;11.70;;;;;;4967947;28;20402;-75
2021/07/26 12:36:43;;;;;;;4.03;3.40;;;28.70;11.40;;;;;;5013492;28;20462;-75
2021/07/26 12:39:10;;;;;;;3.30;3.00;;;28.70;11.20;;;;;;5010345;28;20405;-76
2021/07/26 12:41:36;;;;;;;4.13;3.50;;;28.90;11.10;;;;;;5025923;28;20435;-76
2021/07/26 12:44:26;;;;;;;4.20;3.20;;;28.70;10.70;;;;;;5011765;28;20392;-76
2021/07/26 12:46:53;;;;;;;4.70;3.50;;;28.70;10.30;;;;;;5006529;28;20398;-76
2021/07/26 12:49:21;;;;;;;4.85;3.53;;;28.50;11.10;;;;;;4989034;28;20504;-76
2021/07/26 12:51:52;;;;;;;3.47;3.28;;;28.70;10.50;;;;;;5010724;28;20482;-76
2021/07/26 12:54:21;;;;;;;4.15;3.10;;;28.90;10.60;;;;;;5010530;28;20392;-76